createdAt,value
2023-02-16T00:01:54.494Z,2.10
2023-02-16T00:04:27.483Z,2.70
2023-02-16T00:06:55.840Z,3.00
2023-02-16T00:09:24.177Z,3.10
2023-02-16T00:12:11.600Z,2.60
2023-02-16T00:14:41.332Z,3.70
2023-02-16T00:17:10.360Z,4.00
2023-02-16T00:19:39.871Z,4.30
2023-02-16T00:22:08.985Z,3.60
2023-02-16T00:24:37.840Z,3.50
2023-02-16T00:27:13.200Z,4.60
2023-02-16T00:29:41.771Z,4.20
2023-02-16T00:32:11.664Z,4.30
2023-02-16T00:34:43.307Z,4.70
2023-02-16T00:37:12.999Z,5.10
2023-02-16T00:39:43.626Z,5.40
2023-02-16T00:42:24.083Z,5.50
2023-02-16T00:44:54.108Z,4.40
2023-02-16T00:47:38.326Z,5.50
2023-02-16T00:50:19.919Z,5.30
2023-02-16T00:52:49.199Z,5.60
2023-02-16T00:55:19.031Z,5.20
2023-02-16T00:57:55.612Z,6.20
2023-02-16T01:00:30.102Z,7.30
2023-02-16T01:03:00.248Z,6.20
2023-02-16T01:05:28.904Z,5.60
2023-02-16T01:08:18.196Z,5.20
2023-02-16T01:10:58.719Z,4.30
2023-02-16T01:13:28.765Z,5.00
2023-02-16T01:15:57.149Z,4.90
2023-02-16T01:18:25.102Z,5.00
2023-02-16T01:20:53.292Z,5.30
2023-02-16T01:23:21.441Z,5.70
2023-02-16T01:25:50.190Z,4.50
2023-02-16T01:28:21.499Z,4.20
2023-02-16T01:30:52.110Z,3.80
2023-02-16T01:33:21.044Z,4.10
2023-02-16T01:35:50.965Z,3.30
2023-02-16T01:38:21.879Z,3.50
2023-02-16T01:41:29.080Z,3.70
2023-02-16T01:44:05.102Z,3.00
2023-02-16T01:46:36.333Z,2.90
2023-02-16T01:49:04.831Z,2.40
2023-02-16T01:51:41.293Z,2.70
2023-02-16T01:54:16.878Z,3.10
2023-02-16T01:56:50.323Z,3.10
2023-02-16T01:59:31.238Z,3.30
2023-02-16T02:02:01.704Z,3.20
2023-02-16T02:04:49.032Z,3.30
2023-02-16T02:07:46.473Z,4.60
2023-02-16T02:10:17.625Z,4.00
2023-02-16T02:13:07.925Z,4.40
2023-02-16T02:15:37.191Z,4.50
2023-02-16T02:18:05.499Z,3.50
2023-02-16T02:21:09.032Z,4.00
2023-02-16T02:23:44.007Z,3.50
2023-02-16T02:26:32.640Z,3.00
2023-02-16T02:29:41.830Z,3.50
2023-02-16T02:32:22.381Z,3.70
2023-02-16T02:34:54.077Z,3.60
2023-02-16T02:37:28.425Z,3.10
2023-02-16T02:40:15.126Z,3.30
2023-02-16T02:43:22.433Z,3.60
2023-02-16T02:45:53.147Z,3.20
2023-02-16T02:48:22.028Z,3.70
2023-02-16T02:54:38.162Z,3.40
2023-02-16T02:58:03.171Z,5.10
2023-02-16T03:00:40.510Z,3.70
2023-02-16T03:03:10.092Z,3.60
2023-02-16T03:05:37.619Z,3.20
2023-02-16T03:08:13.583Z,3.50
2023-02-16T03:11:07.939Z,3.70
2023-02-16T03:13:40.092Z,3.90
2023-02-16T03:16:29.392Z,4.10
2023-02-16T03:19:15.495Z,3.90
2023-02-16T03:22:00.836Z,3.90
2023-02-16T03:24:48.515Z,3.80
2023-02-16T03:27:39.929Z,3.50
2023-02-16T03:30:07.645Z,3.80
2023-02-16T03:32:34.482Z,3.70
2023-02-16T03:35:01.568Z,11.10
2023-02-16T03:37:29.231Z,9.90
2023-02-16T03:40:14.529Z,9.20
2023-02-16T03:42:49.801Z,7.40
2023-02-16T03:45:17.253Z,6.00
2023-02-16T03:47:44.770Z,5.80
2023-02-16T03:50:11.367Z,4.90
2023-02-16T03:52:38.422Z,4.40
2023-02-16T03:55:06.012Z,5.10
2023-02-16T03:57:33.579Z,4.80
2023-02-16T04:00:00.648Z,5.00
2023-02-16T04:02:28.182Z,4.60
2023-02-16T04:04:54.962Z,4.10
2023-02-16T04:07:21.676Z,3.30
2023-02-16T04:09:48.244Z,4.40
2023-02-16T04:12:33.693Z,4.10
2023-02-16T04:15:00.650Z,4.00
2023-02-16T04:17:29.607Z,3.80
2023-02-16T04:19:56.271Z,3.70
2023-02-16T04:22:26.075Z,4.50
2023-02-16T04:24:52.813Z,4.50
2023-02-16T04:27:19.606Z,4.20
2023-02-16T04:29:46.706Z,4.90
2023-02-16T04:32:13.383Z,4.60
2023-02-16T04:34:40.365Z,4.70
2023-02-16T04:37:07.117Z,5.30
2023-02-16T04:39:34.617Z,5.40
2023-02-16T04:42:01.520Z,4.60
2023-02-16T04:44:28.070Z,4.50
2023-02-16T04:46:55.007Z,4.40
2023-02-16T04:49:22.135Z,5.40
2023-02-16T04:51:49.000Z,5.10
2023-02-16T04:54:15.933Z,4.80
2023-02-16T04:56:46.033Z,5.80
2023-02-16T04:59:15.134Z,6.70
2023-02-16T05:01:43.146Z,6.50
2023-02-16T05:04:10.270Z,7.50
2023-02-16T05:06:38.062Z,8.20
2023-02-16T05:09:05.295Z,8.40
2023-02-16T05:11:53.795Z,8.30
2023-02-16T05:14:42.571Z,9.20
2023-02-16T05:17:19.478Z,8.70
2023-02-16T05:19:53.057Z,8.20
2023-02-16T05:22:20.254Z,8.20
2023-02-16T05:24:48.041Z,8.30
2023-02-16T05:27:17.404Z,8.10
2023-02-16T05:29:43.992Z,8.10
2023-02-16T05:32:11.188Z,8.50
2023-02-16T05:34:38.755Z,8.10
2023-02-16T05:37:12.987Z,7.90
2023-02-16T05:39:40.417Z,8.00
2023-02-16T05:42:08.337Z,8.50
2023-02-16T05:44:35.092Z,8.40
2023-02-16T05:47:01.994Z,8.10
2023-02-16T05:49:33.324Z,10.10
2023-02-16T05:52:00.249Z,6.50
2023-02-16T05:54:27.437Z,7.00
2023-02-16T05:56:54.523Z,6.10
2023-02-16T05:59:21.489Z,5.80
2023-02-16T06:01:51.621Z,6.20
2023-02-16T06:04:19.286Z,7.00
2023-02-16T06:06:45.894Z,6.30
2023-02-16T06:09:12.639Z,5.90
2023-02-16T06:11:41.105Z,5.90
2023-02-16T06:14:14.145Z,6.20
2023-02-16T06:16:43.788Z,6.60
2023-02-16T06:19:11.145Z,5.70
2023-02-16T06:21:38.323Z,8.50
2023-02-16T06:24:06.245Z,8.00
2023-02-16T06:26:34.529Z,7.10
2023-02-16T06:29:01.539Z,6.30
2023-02-16T06:31:28.731Z,8.10
2023-02-16T06:33:56.502Z,6.80
2023-02-16T06:36:24.522Z,7.20
2023-02-16T06:38:51.655Z,7.90
2023-02-16T06:41:30.583Z,7.10
2023-02-16T06:43:58.731Z,7.60
2023-02-16T06:46:25.472Z,9.20
2023-02-16T06:48:52.386Z,8.20
2023-02-16T06:51:27.565Z,8.60
2023-02-16T06:53:56.721Z,8.30
2023-02-16T06:56:24.084Z,8.40
2023-02-16T06:58:51.351Z,8.20
2023-02-16T07:01:23.200Z,6.60
2023-02-16T07:03:50.816Z,6.20
2023-02-16T07:06:18.219Z,6.70
2023-02-16T07:08:52.642Z,9.30
2023-02-16T07:11:20.260Z,11.00
2023-02-16T07:13:47.700Z,11.00
2023-02-16T07:16:15.344Z,11.20
2023-02-16T07:18:42.444Z,9.50
2023-02-16T07:21:09.487Z,12.20
2023-02-16T07:23:37.163Z,11.30
2023-02-16T07:26:04.195Z,8.80
2023-02-16T07:28:31.064Z,9.50
2023-02-16T07:30:57.682Z,11.50
2023-02-16T07:33:24.887Z,11.40
2023-02-16T07:35:51.878Z,12.60
2023-02-16T07:38:19.012Z,12.10
2023-02-16T07:40:46.051Z,12.00
2023-02-16T07:43:16.039Z,11.00
2023-02-16T07:45:42.873Z,12.40
2023-02-16T07:48:09.590Z,17.20
2023-02-16T07:50:37.116Z,20.60
2023-02-16T07:53:04.212Z,17.00
2023-02-16T07:55:32.178Z,18.60
2023-02-16T07:57:59.603Z,16.20
2023-02-16T08:00:26.784Z,13.50
2023-02-16T08:02:53.527Z,16.40
2023-02-16T08:05:20.313Z,16.40
2023-02-16T08:07:47.929Z,16.90
2023-02-16T08:10:15.621Z,17.90
2023-02-16T08:12:44.549Z,14.80
2023-02-16T08:15:11.532Z,11.90
2023-02-16T08:17:38.972Z,11.50
2023-02-16T08:20:07.047Z,11.20
2023-02-16T08:22:34.772Z,9.90
2023-02-16T08:25:01.941Z,9.30
2023-02-16T08:27:29.706Z,9.10
2023-02-16T08:29:57.627Z,9.10
2023-02-16T08:32:24.915Z,11.00
2023-02-16T08:35:09.589Z,11.70
2023-02-16T08:37:37.676Z,10.60
2023-02-16T08:40:07.715Z,10.30
2023-02-16T08:42:35.213Z,11.70
2023-02-16T08:45:02.742Z,13.50
2023-02-16T08:47:30.461Z,12.20
2023-02-16T08:49:57.118Z,11.60
2023-02-16T08:52:24.545Z,8.00
2023-02-16T08:54:52.210Z,8.70
2023-02-16T08:57:19.332Z,10.40
2023-02-16T09:00:06.454Z,8.60
2023-02-16T09:02:34.117Z,9.20
2023-02-16T09:05:02.907Z,12.10
2023-02-16T09:07:34.428Z,12.10
2023-02-16T09:10:02.218Z,10.50
2023-02-16T09:12:30.582Z,8.80
2023-02-16T09:14:59.072Z,9.90
2023-02-16T09:17:26.362Z,12.30
2023-02-16T09:19:56.520Z,10.20
2023-02-16T09:22:23.570Z,11.00
2023-02-16T09:24:51.374Z,11.00
2023-02-16T09:27:34.163Z,9.90
2023-02-16T09:30:00.849Z,10.20
2023-02-16T09:32:29.458Z,9.90
2023-02-16T09:34:56.126Z,8.60
2023-02-16T09:37:23.290Z,8.30
2023-02-16T09:39:50.062Z,8.30
2023-02-16T09:42:24.853Z,7.70
2023-02-16T09:45:09.255Z,7.50
2023-02-16T09:47:42.374Z,8.10
2023-02-16T09:50:38.213Z,7.30
2023-02-16T09:53:20.812Z,9.10
2023-02-16T09:55:53.765Z,7.90
2023-02-16T09:58:22.272Z,8.30
2023-02-16T10:00:51.818Z,9.30
2023-02-16T10:03:31.647Z,10.20
2023-02-16T10:06:13.693Z,8.70
2023-02-16T10:08:51.160Z,8.00
2023-02-16T10:11:37.559Z,7.50
2023-02-16T10:14:31.342Z,7.80
2023-02-16T10:17:06.195Z,7.50
2023-02-16T10:19:40.876Z,6.90
2023-02-16T10:22:10.743Z,7.80
2023-02-16T10:24:43.826Z,8.10
2023-02-16T10:27:13.771Z,7.70
2023-02-16T10:29:40.663Z,7.80
2023-02-16T10:32:28.622Z,7.70
2023-02-16T10:35:18.864Z,8.30
2023-02-16T10:37:51.984Z,8.60
2023-02-16T10:40:31.308Z,8.70
2023-02-16T10:43:04.063Z,9.00
2023-02-16T10:45:49.618Z,8.60
2023-02-16T10:48:22.280Z,7.40
2023-02-16T10:51:05.828Z,7.80
2023-02-16T10:53:47.832Z,8.80
2023-02-16T10:56:45.614Z,8.50
2023-02-16T10:59:16.656Z,8.50
2023-02-16T11:01:45.743Z,9.40
2023-02-16T11:04:32.218Z,8.00
2023-02-16T11:07:10.818Z,7.80
2023-02-16T11:09:38.829Z,7.80
2023-02-16T11:12:37.786Z,7.10
2023-02-16T11:15:15.986Z,6.80
2023-02-16T11:17:51.945Z,6.50
2023-02-16T11:20:32.087Z,7.00
2023-02-16T11:23:16.924Z,6.30
2023-02-16T11:26:10.070Z,7.90
2023-02-16T11:28:39.553Z,6.60
2023-02-16T11:31:09.201Z,8.70
2023-02-16T11:33:37.105Z,8.10
2023-02-16T11:36:23.820Z,6.90
2023-02-16T11:39:11.092Z,7.30
2023-02-16T11:41:38.794Z,8.60
2023-02-16T11:44:05.741Z,7.60
2023-02-16T11:46:38.741Z,9.40
2023-02-16T11:49:24.908Z,8.60
2023-02-16T11:51:51.710Z,7.10
2023-02-16T11:54:18.451Z,7.90
2023-02-16T11:56:45.517Z,7.00
2023-02-16T11:59:20.870Z,10.50
2023-02-16T12:02:24.715Z,7.80
2023-02-16T12:05:04.538Z,8.00
2023-02-16T12:08:15.525Z,7.10
2023-02-16T12:11:04.771Z,6.50
2023-02-16T12:14:12.230Z,7.10
2023-02-16T12:16:53.942Z,7.70
2023-02-16T12:19:23.951Z,7.80
2023-02-16T12:21:53.113Z,7.70
2023-02-16T12:24:42.667Z,7.50
2023-02-16T12:27:20.821Z,7.90
2023-02-16T12:30:09.212Z,8.30
2023-02-16T12:33:01.146Z,9.00
2023-02-16T12:35:53.796Z,7.40
2023-02-16T12:38:42.898Z,7.50
2023-02-16T12:41:21.200Z,6.90
2023-02-16T12:43:52.825Z,8.60
2023-02-16T12:46:32.682Z,10.00
2023-02-16T12:49:34.420Z,10.40
2023-02-16T12:52:10.226Z,10.00
2023-02-16T12:54:49.541Z,10.40
2023-02-16T12:57:19.940Z,10.10
2023-02-16T12:59:54.936Z,9.30
2023-02-16T13:02:31.296Z,9.00
2023-02-16T13:05:10.544Z,8.80
2023-02-16T13:07:39.452Z,9.50
2023-02-16T13:10:18.207Z,9.90
2023-02-16T13:12:57.804Z,8.80
2023-02-16T13:15:47.074Z,9.10
2023-02-16T13:18:22.492Z,9.70
2023-02-16T13:21:03.619Z,10.30
2023-02-16T13:23:40.660Z,10.00
2023-02-16T13:26:33.028Z,8.40
2023-02-16T13:29:38.787Z,8.40
2023-02-16T13:32:29.719Z,9.40
2023-02-16T13:35:21.789Z,9.40
2023-02-16T13:38:15.222Z,10.90
2023-02-16T13:40:48.410Z,11.40
2023-02-16T13:43:40.767Z,12.60
2023-02-16T13:46:13.519Z,11.30
2023-02-16T13:48:49.696Z,11.40
2023-02-16T13:51:26.820Z,10.60
2023-02-16T13:54:01.151Z,11.50
2023-02-16T13:56:28.972Z,10.70
2023-02-16T13:59:23.803Z,11.30
2023-02-16T14:01:53.565Z,10.00
2023-02-16T14:04:24.260Z,11.20
2023-02-16T14:07:14.519Z,11.20
2023-02-16T14:09:41.464Z,11.70
2023-02-16T14:12:11.081Z,12.10
2023-02-16T14:14:40.956Z,10.40
2023-02-16T14:17:21.094Z,9.70
2023-02-16T14:19:52.527Z,9.80
2023-02-16T14:22:56.743Z,11.70
2023-02-16T14:25:23.535Z,9.70
2023-02-16T14:28:13.434Z,9.20
2023-02-16T14:30:52.798Z,9.60
2023-02-16T14:33:32.792Z,10.20
2023-02-16T14:35:59.745Z,9.90
2023-02-16T14:38:32.513Z,9.80
2023-02-16T14:41:00.689Z,10.40
2023-02-16T14:43:34.714Z,10.40
2023-02-16T14:46:05.045Z,10.40
2023-02-16T14:48:51.093Z,9.60
2023-02-16T14:51:56.347Z,11.10
2023-02-16T14:55:01.225Z,10.50
2023-02-16T15:00:13.315Z,9.80
2023-02-16T15:02:42.621Z,10.40
2023-02-16T15:05:39.319Z,11.70
2023-02-16T15:08:17.026Z,10.70
2023-02-16T15:12:15.758Z,11.80
2023-02-16T15:15:03.000Z,10.70
2023-02-16T15:17:39.390Z,10.40
2023-02-16T15:20:10.944Z,9.30
2023-02-16T15:22:44.639Z,11.30
2023-02-16T15:25:30.084Z,11.30
2023-02-16T15:27:59.335Z,9.80
2023-02-16T15:30:30.027Z,11.20
2023-02-16T15:33:01.190Z,10.80
2023-02-16T15:35:39.729Z,10.70
2023-02-16T15:38:17.061Z,9.50
2023-02-16T15:40:45.618Z,11.70
2023-02-16T15:43:34.700Z,10.70
2023-02-16T15:46:05.593Z,10.10
2023-02-16T15:48:38.976Z,10.30
2023-02-16T15:51:11.782Z,11.00
2023-02-16T15:53:47.367Z,11.50
2023-02-16T15:56:28.315Z,10.90
2023-02-16T15:59:01.791Z,10.70
2023-02-16T16:01:33.355Z,11.30
2023-02-16T16:04:06.562Z,10.10
2023-02-16T16:06:38.947Z,9.60
2023-02-16T16:09:08.645Z,10.60
2023-02-16T16:11:39.841Z,11.60
2023-02-16T16:14:10.361Z,11.30
2023-02-16T16:16:38.870Z,9.80
2023-02-16T16:19:20.258Z,11.00
2023-02-16T16:21:54.445Z,11.10
2023-02-16T16:24:39.444Z,9.70
2023-02-16T16:27:10.636Z,10.30
2023-02-16T16:29:47.559Z,11.10
2023-02-16T16:32:29.364Z,10.60
2023-02-16T16:35:02.922Z,11.10
2023-02-16T16:37:33.651Z,11.60
2023-02-16T16:40:20.966Z,10.60
2023-02-16T16:43:04.683Z,11.00
2023-02-16T16:45:43.052Z,10.80
2023-02-16T16:48:42.021Z,12.20
2023-02-16T16:51:19.250Z,12.00
2023-02-16T16:53:52.340Z,11.40
2023-02-16T16:56:20.958Z,11.60
2023-02-16T16:58:52.328Z,11.90
2023-02-16T17:01:20.827Z,11.90
2023-02-16T17:03:49.359Z,13.00
2023-02-16T17:06:19.002Z,11.60
2023-02-16T17:08:50.374Z,12.70
2023-02-16T17:11:36.459Z,12.10
2023-02-16T17:14:15.366Z,12.20
2023-02-16T17:16:45.188Z,14.00
2023-02-16T17:19:15.121Z,12.20
2023-02-16T17:21:43.559Z,11.80
2023-02-16T17:24:11.812Z,11.50
2023-02-16T17:26:40.628Z,11.30
2023-02-16T17:29:09.720Z,10.90
2023-02-16T17:31:37.820Z,11.00
2023-02-16T17:34:06.294Z,10.30
2023-02-16T17:36:36.405Z,10.90
2023-02-16T17:39:09.072Z,10.70
2023-02-16T17:41:37.054Z,11.20
2023-02-16T17:44:05.421Z,11.40
2023-02-16T17:46:41.894Z,11.50
2023-02-16T17:49:11.602Z,11.50
2023-02-16T17:51:39.876Z,11.90
2023-02-16T17:54:10.934Z,11.70
2023-02-16T17:56:42.007Z,11.20
2023-02-16T17:59:14.338Z,11.90
2023-02-16T18:01:43.823Z,12.30
2023-02-16T18:04:12.353Z,12.10
2023-02-16T18:06:41.098Z,12.20
2023-02-16T18:09:14.744Z,11.20
2023-02-16T18:11:43.279Z,11.40
2023-02-16T18:14:12.685Z,11.10
2023-02-16T18:16:40.755Z,10.90
2023-02-16T18:19:14.822Z,11.40
2023-02-16T18:21:45.327Z,12.00
2023-02-16T18:24:13.755Z,12.30
2023-02-16T18:26:42.141Z,11.90
2023-02-16T18:29:10.548Z,11.90
2023-02-16T18:31:40.802Z,11.30
2023-02-16T18:34:10.059Z,11.70
2023-02-16T18:36:38.574Z,10.50
2023-02-16T18:39:07.212Z,11.10
2023-02-16T18:41:36.060Z,11.60
2023-02-16T18:44:05.228Z,11.30
2023-02-16T18:46:33.705Z,11.80
2023-02-16T18:49:02.592Z,10.80
2023-02-16T18:51:32.110Z,13.20
2023-02-16T18:54:05.153Z,10.60
2023-02-16T18:56:35.501Z,12.30
2023-02-16T18:59:03.987Z,11.90
2023-02-16T19:01:33.356Z,13.30
2023-02-16T19:04:03.160Z,11.80
2023-02-16T19:06:31.912Z,13.10
2023-02-16T19:09:00.477Z,12.00
2023-02-16T19:11:30.925Z,12.60
2023-02-16T19:13:58.860Z,13.10
2023-02-16T19:16:27.218Z,13.10
2023-02-16T19:18:55.640Z,13.00
2023-02-16T19:21:24.111Z,12.30
2023-02-16T19:23:52.584Z,11.90
2023-02-16T19:26:21.277Z,13.40
2023-02-16T19:28:49.472Z,12.80
2023-02-16T19:31:23.638Z,13.50
2023-02-16T19:33:52.560Z,12.90
2023-02-16T19:36:20.731Z,13.40
2023-02-16T19:38:49.709Z,14.10
2023-02-16T19:41:29.358Z,15.00
2023-02-16T19:43:57.945Z,14.50
2023-02-16T19:46:26.278Z,14.80
2023-02-16T19:48:55.524Z,13.60
2023-02-16T19:51:24.003Z,12.70
2023-02-16T19:53:52.287Z,13.40
2023-02-16T19:56:22.505Z,14.30
2023-02-16T19:58:52.422Z,13.80
2023-02-16T20:01:22.989Z,14.50
2023-02-16T20:03:51.711Z,13.90
2023-02-16T20:06:24.179Z,14.40
2023-02-16T20:08:52.749Z,14.50
2023-02-16T20:11:22.522Z,14.10
2023-02-16T20:13:50.500Z,14.70
2023-02-16T20:16:19.312Z,14.60
2023-02-16T20:18:48.043Z,14.30
2023-02-16T20:21:22.788Z,12.80
2023-02-16T20:23:51.939Z,14.40
2023-02-16T20:26:25.319Z,13.90
2023-02-16T20:28:53.998Z,15.40
2023-02-16T20:31:34.552Z,14.10
2023-02-16T20:34:03.362Z,14.90
2023-02-16T20:36:32.703Z,14.10
2023-02-16T20:39:01.037Z,15.70
2023-02-16T20:41:29.247Z,14.30
2023-02-16T20:43:58.250Z,14.40
2023-02-16T20:46:26.508Z,14.60
2023-02-16T20:48:54.937Z,13.50
2023-02-16T20:51:22.925Z,15.40
2023-02-16T20:53:51.168Z,15.30
2023-02-16T20:56:24.191Z,13.70
2023-02-16T20:58:57.755Z,14.90
2023-02-16T21:01:29.340Z,14.50
2023-02-16T21:03:58.486Z,14.10
2023-02-16T21:06:27.077Z,14.80
2023-02-16T21:08:55.137Z,13.50
2023-02-16T21:11:23.420Z,14.40
2023-02-16T21:13:51.767Z,14.30
2023-02-16T21:16:23.838Z,15.60
2023-02-16T21:18:52.214Z,14.10
2023-02-16T21:21:20.767Z,15.00
2023-02-16T21:23:50.669Z,15.30
2023-02-16T21:26:19.942Z,14.80
2023-02-16T21:28:48.352Z,13.70
2023-02-16T21:31:23.565Z,12.20
2023-02-16T21:33:52.548Z,15.00
2023-02-16T21:36:25.368Z,14.00
2023-02-16T21:38:53.577Z,14.60
2023-02-16T21:41:26.781Z,14.90
2023-02-16T21:44:03.984Z,15.20
2023-02-16T21:46:37.914Z,15.90
2023-02-16T21:49:11.589Z,16.40
2023-02-16T21:51:41.405Z,15.40
2023-02-16T21:54:14.545Z,15.20
2023-02-16T21:56:44.425Z,14.90
2023-02-16T21:59:14.195Z,14.30
2023-02-16T22:01:46.715Z,13.30
2023-02-16T22:04:16.333Z,13.90
2023-02-16T22:06:46.228Z,13.70
2023-02-16T22:09:17.558Z,14.20
2023-02-16T22:11:46.620Z,14.90
2023-02-16T22:14:15.010Z,15.50
2023-02-16T22:16:48.050Z,16.70
2023-02-16T22:19:17.203Z,16.10
2023-02-16T22:21:46.295Z,16.10
2023-02-16T22:24:16.043Z,16.80
2023-02-16T22:26:44.120Z,18.50
2023-02-16T22:29:12.375Z,16.20
2023-02-16T22:31:47.764Z,16.90
2023-02-16T22:34:17.910Z,17.00
2023-02-16T22:36:46.167Z,16.70
2023-02-16T22:39:15.186Z,16.50
2023-02-16T22:41:43.713Z,16.80
2023-02-16T22:44:12.067Z,16.60
2023-02-16T22:46:40.703Z,17.50
2023-02-16T22:49:09.134Z,17.60
2023-02-16T22:51:37.727Z,17.50
2023-02-16T22:54:06.355Z,17.20
2023-02-16T22:56:35.391Z,16.70
2023-02-16T22:59:03.393Z,17.40
2023-02-16T23:01:32.463Z,16.20
2023-02-16T23:04:02.076Z,17.40
2023-02-16T23:06:35.073Z,16.00
2023-02-16T23:09:08.000Z,17.60
2023-02-16T23:11:36.828Z,16.60
2023-02-16T23:14:05.579Z,17.50
2023-02-16T23:16:33.995Z,17.20
2023-02-16T23:19:02.067Z,16.80
2023-02-16T23:21:32.036Z,18.50
2023-02-16T23:24:00.376Z,17.90
2023-02-16T23:26:29.620Z,18.20
2023-02-16T23:28:59.953Z,17.90
2023-02-16T23:31:33.398Z,18.60
2023-02-16T23:34:03.508Z,18.00
2023-02-16T23:36:35.520Z,18.50
2023-02-16T23:39:15.225Z,18.10
2023-02-16T23:41:44.132Z,17.10
2023-02-16T23:44:12.820Z,18.60
2023-02-16T23:46:41.016Z,17.90
2023-02-16T23:49:09.127Z,17.50
2023-02-16T23:51:37.419Z,14.80
2023-02-16T23:54:05.786Z,15.80
2023-02-16T23:56:33.999Z,14.50
2023-02-16T23:59:02.947Z,15.00
